Time;durP1;ratioP1;P1;durP2;ratioP2;P2;SDS_P1;SDS_P2;PMS_P1;PMS_P2;Temp;Humidity;BMP_temperature;BMP_pressure;BME280_temperature;BME280_humidity;BME280_pressure;Samples;Min_cycle;Max_cycle;Signal;HPM_P1;HPM_P2
2023/06/23 00:01:18;;;;;;;;;9.00;7.33;;;;;22.55;53.82;101773.34;5059245;28;45504;-74
2023/06/23 00:03:45;;;;;;;;;11.00;9.67;;;;;22.56;53.76;101791.09;5056949;28;45232;-73
2023/06/23 00:06:12;;;;;;;;;8.00;8.00;;;;;22.32;54.11;101761.56;5054935;28;45590;-74
2023/06/23 00:08:41;;;;;;;;;8.67;8.00;;;;;22.42;54.37;101784.41;5054502;28;45614;-74
2023/06/23 00:11:08;;;;;;;;;7.00;7.00;;;;;22.22;55.14;101786.81;5054521;28;45353;-76
2023/06/23 00:13:34;;;;;;;;;9.67;7.00;;;;;22.15;54.88;101767.38;5054837;28;45430;-75
2023/06/23 00:16:04;;;;;;;;;10.67;7.33;;;;;22.31;54.67;101780.31;5053743;28;45549;-74
2023/06/23 00:18:32;;;;;;;;;8.67;8.67;;;;;22.20;53.98;101760.16;5054401;28;45878;-74
2023/06/23 00:21:01;;;;;;;;;8.67;8.33;;;;;22.37;54.14;101793.47;5057368;28;45267;-73
2023/06/23 00:23:30;;;;;;;;;10.67;7.33;;;;;22.39;53.97;101792.50;5056602;28;45468;-72
2023/06/23 00:25:57;;;;;;;;;11.67;8.33;;;;;22.20;54.14;101764.59;5056264;28;45525;-72
2023/06/23 00:28:24;;;;;;;;;9.00;8.67;;;;;22.26;54.57;101790.22;5055976;28;47719;-75
2023/06/23 00:30:50;;;;;;;;;6.00;4.00;;;;;22.25;54.21;101783.16;5064219;28;45207;-73
2023/06/23 00:33:17;;;;;;;;;9.00;8.00;;;;;22.35;54.13;101790.84;5067656;28;45350;-76
2023/06/23 00:35:47;;;;;;;;;9.67;8.33;;;;;22.30;54.21;101799.91;5066440;28;45264;-73
2023/06/23 00:38:13;;;;;;;;;11.33;9.67;;;;;22.07;54.41;101763.19;5067443;28;45476;-73
2023/06/23 00:40:40;;;;;;;;;9.33;9.33;;;;;22.20;54.29;101788.59;5072572;27;45637;-75
2023/06/23 00:43:07;;;;;;;;;9.00;7.33;;;;;22.22;54.24;101781.47;5054903;28;45444;-73
2023/06/23 00:45:39;;;;;;;;;8.00;7.67;;;;;22.30;54.38;101791.91;5056030;28;45407;-74
2023/06/23 00:48:05;;;;;;;;;11.00;7.00;;;;;22.28;54.21;101791.97;5056733;28;45520;-74
2023/06/23 00:50:31;;;;;;;;;8.00;7.33;;;;;22.28;54.02;101786.63;5054591;28;45315;-73
2023/06/23 00:52:58;;;;;;;;;14.33;11.33;;;;;22.13;54.02;101757.69;5054428;28;45524;-74
2023/06/23 00:55:28;;;;;;;;;12.00;11.00;;;;;21.98;53.80;101732.34;5053568;28;45433;-74
2023/06/23 00:57:56;;;;;;;;;11.33;10.33;;;;;22.29;54.01;101783.03;5053873;28;46486;-74
2023/06/23 01:00:23;;;;;;;;;9.67;9.33;;;;;22.31;54.15;101780.31;5052766;28;45504;-74
2023/06/23 01:02:54;;;;;;;;;9.67;8.67;;;;;22.28;54.20;101780.38;5070158;27;45734;-73
2023/06/23 01:05:24;;;;;;;;;9.33;6.00;;;;;22.30;54.18;101784.75;5053351;28;45581;-74
2023/06/23 01:08:18;;;;;;;;;8.67;7.00;;;;;22.30;54.21;101790.09;5054135;28;46313;-73
2023/06/23 01:11:22;;;;;;;;;9.67;8.00;;;;;22.28;54.17;101791.06;5053700;28;45494;-74
2023/06/23 01:14:06;;;;;;;;;9.00;7.67;;;;;22.19;54.90;101782.41;5041957;28;45506;-73
2023/06/23 01:16:38;;;;;;;;;8.33;6.67;;;;;22.14;55.01;101788.78;5054462;28;45670;-74
2023/06/23 01:19:32;;;;;;;;;9.33;8.00;;;;;22.16;54.77;101797.59;5055371;28;46163;-73
2023/06/23 01:22:15;;;;;;;;;8.00;6.67;;;;;22.15;54.95;101807.41;5036851;28;45327;-74
2023/06/23 01:25:02;;;;;;;;;12.33;9.33;;;;;22.05;55.12;101791.75;5038268;28;45346;-73
2023/06/23 01:27:52;;;;;;;;;10.67;7.00;;;;;21.95;55.22;101781.31;5037821;28;45322;-73
2023/06/23 01:30:25;;;;;;;;;13.33;10.00;;;;;22.02;55.46;101804.25;5037442;28;46313;-73
2023/06/23 01:32:54;;;;;;;;;8.00;7.33;;;;;21.99;55.57;101809.63;5048716;28;45378;-71
2023/06/23 01:35:33;;;;;;;;;7.67;7.67;;;;;21.89;55.68;101802.81;5038617;28;45551;-72
2023/06/23 01:38:19;;;;;;;;;9.33;8.67;;;;;21.92;56.04;101810.72;5032449;28;45470;-72
2023/06/23 01:40:52;;;;;;;;;7.33;7.33;;;;;21.78;56.16;101813.81;5033143;28;46259;-72
2023/06/23 01:43:29;;;;;;;;;8.33;8.33;;;;;21.78;56.01;101805.81;5033234;28;45418;-73
2023/06/23 01:46:04;;;;;;;;;9.00;6.33;;;;;21.87;55.98;101817.13;5033699;28;45428;-72
2023/06/23 01:48:34;;;;;;;;;10.00;8.67;;;;;21.77;55.96;101805.84;5046805;28;45316;-72
2023/06/23 01:51:02;;;;;;;;;8.00;8.00;;;;;21.68;55.87;101785.63;5053082;28;46448;-72
2023/06/23 01:53:32;;;;;;;;;9.33;9.33;;;;;21.86;55.78;101824.25;5053390;28;45695;-73
2023/06/23 01:56:04;;;;;;;;;11.67;10.67;;;;;21.73;55.95;101812.16;5054554;28;45535;-72
2023/06/23 01:58:33;;;;;;;;;10.33;8.00;;;;;21.79;55.80;101823.56;5057805;28;45330;-72
2023/06/23 02:01:00;;;;;;;;;8.33;7.00;;;;;21.79;55.75;101828.88;5055175;28;46240;-73
2023/06/23 02:03:31;;;;;;;;;10.33;6.00;;;;;21.84;55.69;101841.22;5053373;28;45521;-73
2023/06/23 02:06:02;;;;;;;;;8.00;8.00;;;;;21.69;55.59;101819.41;5045631;28;45903;-72
2023/06/23 02:08:30;;;;;;;;;7.33;7.33;;;;;21.68;55.50;101817.63;5036413;28;45457;-73
2023/06/23 02:11:00;;;;;;;;;7.67;6.67;;;;;21.76;55.55;101826.31;5038003;28;45343;-73
2023/06/23 02:13:31;;;;;;;;;8.00;7.33;;;;;21.85;55.59;101854.50;5040678;28;45496;-74
2023/06/23 02:15:58;;;;;;;;;7.67;7.67;;;;;21.55;55.69;101809.09;5040895;28;45372;-73
2023/06/23 02:18:26;;;;;;;;;10.67;9.33;;;;;21.80;55.61;101846.63;5036861;28;45556;-72
2023/06/23 02:20:53;;;;;;;;;10.33;7.67;;;;;21.73;55.24;101829.03;5036151;28;46486;-72
2023/06/23 02:23:20;;;;;;;;;9.00;9.00;;;;;21.59;55.42;101802.78;5035908;28;45541;-72
2023/06/23 02:25:46;;;;;;;;;11.00;7.00;;;;;21.46;55.70;101790.69;5034780;28;45972;-72
2023/06/23 02:28:13;;;;;;;;;12.00;9.67;;;;;21.52;55.68;101803.84;5039411;28;45985;-71
2023/06/23 02:30:40;;;;;;;;;7.33;5.67;;;;;21.61;55.58;101816.03;5040598;28;46459;-72
2023/06/23 02:33:06;;;;;;;;;9.33;7.67;;;;;21.62;55.75;101841.81;5036671;28;45761;-72
2023/06/23 02:35:33;;;;;;;;;7.67;7.67;;;;;21.63;55.99;101840.00;5036098;28;45554;-72
2023/06/23 02:38:04;;;;;;;;;7.33;7.00;;;;;21.60;56.01;101838.31;5036374;28;45315;-71
2023/06/23 02:40:34;;;;;;;;;8.33;8.33;;;;;21.46;55.83;101819.13;5035833;28;45460;-74
2023/06/23 02:43:05;;;;;;;;;8.00;8.00;;;;;21.53;55.82;101839.38;5036526;28;45569;-71
2023/06/23 02:45:36;;;;;;;;;20.67;15.67;;;;;21.55;55.77;101850.88;5035761;28;45541;-73
2023/06/23 02:48:05;;;;;;;;;11.67;9.00;;;;;21.51;55.91;101857.19;5051429;28;45328;-72
2023/06/23 02:50:34;;;;;;;;;10.33;8.67;;;;;21.50;56.01;101864.31;5036150;28;45385;-73
2023/06/23 02:53:08;;;;;;;;;7.00;7.00;;;;;21.46;55.75;101857.31;5036312;28;45906;-73
2023/06/23 02:55:39;;;;;;;;;9.00;7.00;;;;;21.38;56.07;101872.59;5036080;28;45548;-74
2023/06/23 02:58:07;;;;;;;;;8.00;8.00;;;;;21.31;56.30;101881.66;5034419;28;45340;-74
2023/06/23 03:00:37;;;;;;;;;7.00;7.00;;;;;21.34;56.06;101876.25;5035368;28;46442;-74
2023/06/23 03:03:07;;;;;;;;;11.00;6.33;;;;;21.31;56.12;101884.31;5036137;28;45920;-73
2023/06/23 03:05:33;;;;;;;;;8.67;6.33;;;;;21.17;56.51;101871.34;5041859;28;45315;-73
2023/06/23 03:08:02;;;;;;;;;8.00;6.67;;;;;21.12;56.54;101871.44;5056279;28;45543;-73
2023/06/23 03:10:28;;;;;;;;;9.00;8.67;;;;;21.26;55.86;101880.88;5055532;28;45498;-74
2023/06/23 03:12:54;;;;;;;;;7.67;5.67;;;;;21.22;56.02;101871.22;5056007;28;45480;-73
2023/06/23 03:15:20;;;;;;;;;8.33;6.00;;;;;21.25;55.86;101873.81;5060076;28;45474;-74
2023/06/23 03:17:48;;;;;;;;;9.00;8.67;;;;;21.30;56.23;101878.09;5058143;28;45394;-72
2023/06/23 03:20:24;;;;;;;;;8.67;5.67;;;;;21.31;56.04;101877.22;5054384;28;45460;-72
2023/06/23 03:22:58;;;;;;;;;6.67;6.33;;;;;21.32;55.70;101878.06;5056281;28;45525;-74
2023/06/23 03:25:27;;;;;;;;;9.33;7.00;;;;;21.24;55.93;101856.09;5054840;28;45635;-73
2023/06/23 03:28:01;;;;;;;;;8.67;7.00;;;;;21.32;56.08;101868.28;5058568;28;45835;-72
2023/06/23 03:30:31;;;;;;;;;8.00;8.00;;;;;21.18;55.91;101844.63;5055944;28;45364;-73
2023/06/23 03:33:01;;;;;;;;;5.33;5.33;;;;;21.29;55.82;101867.50;5055887;28;45367;-73
2023/06/23 03:35:37;;;;;;;;;8.33;6.67;;;;;21.34;55.68;101873.59;5054576;28;45489;-72
2023/06/23 03:38:06;;;;;;;;;8.33;6.33;;;;;21.33;55.85;101882.47;5055661;28;45413;-72
2023/06/23 03:40:39;;;;;;;;;6.33;6.33;;;;;21.32;56.01;101888.72;5053781;28;46527;-73
2023/06/23 03:43:11;;;;;;;;;8.33;6.67;;;;;21.30;55.90;101891.41;5055735;28;45370;-74
2023/06/23 03:45:39;;;;;;;;;9.67;5.67;;;;;21.25;55.93;101882.66;5071655;28;45420;-73
2023/06/23 03:48:09;;;;;;;;;9.00;7.67;;;;;21.30;56.10;101890.56;5058405;28;45608;-73
2023/06/23 03:50:38;;;;;;;;;9.00;9.00;;;;;21.28;56.35;101898.56;5061957;28;46469;-73
2023/06/23 03:53:05;;;;;;;;;11.33;7.67;;;;;21.27;55.88;101906.63;5061321;28;45418;-74
2023/06/23 03:55:33;;;;;;;;;10.00;8.33;;;;;21.28;55.90;101897.69;5061490;28;45389;-72
2023/06/23 03:58:06;;;;;;;;;7.67;6.67;;;;;21.29;56.12;101902.13;5057955;28;45248;-73
2023/06/23 04:00:35;;;;;;;;;7.00;6.33;;;;;21.30;55.84;101907.41;5059006;28;45496;-74
2023/06/23 04:03:06;;;;;;;;;8.00;7.33;;;;;21.21;55.77;101880.13;5059190;28;45278;-73
2023/06/23 04:05:33;;;;;;;;;10.00;9.00;;;;;21.23;55.72;101878.28;5050017;28;45340;-73
2023/06/23 04:08:02;;;;;;;;;6.67;6.67;;;;;21.17;55.94;101874.88;5039110;28;45423;-72
2023/06/23 04:10:30;;;;;;;;;7.33;7.33;;;;;21.21;55.77;101890.78;5035943;28;45477;-71
2023/06/23 04:12:58;;;;;;;;;6.00;5.33;;;;;21.34;55.91;101913.56;5034793;28;45517;-72
2023/06/23 04:15:27;;;;;;;;;9.67;8.00;;;;;21.22;55.88;101904.06;5035293;28;45464;-72
2023/06/23 04:17:55;;;;;;;;;7.33;5.00;;;;;21.25;56.15;101906.66;5035833;28;45465;-73
2023/06/23 04:20:24;;;;;;;;;9.33;8.00;;;;;21.18;56.15;101907.72;5038199;28;45459;-73
2023/06/23 04:22:52;;;;;;;;;9.00;6.33;;;;;21.19;56.17;101906.81;5038111;28;45486;-72
2023/06/23 04:25:19;;;;;;;;;8.33;7.00;;;;;21.34;56.18;101932.22;5038267;28;45408;-73
2023/06/23 04:27:47;;;;;;;;;7.00;7.00;;;;;21.26;56.70;101934.16;5034490;28;45380;-72
2023/06/23 04:30:18;;;;;;;;;10.00;8.00;;;;;20.91;56.94;101890.59;5033673;28;45554;-72
2023/06/23 04:32:45;;;;;;;;;8.00;6.00;;;;;21.12;57.00;101927.38;5034366;28;45431;-73
2023/06/23 04:35:11;;;;;;;;;8.67;8.00;;;;;20.96;57.01;101891.34;5036719;28;45761;-72
2023/06/23 04:37:46;;;;;;;;;8.33;8.00;;;;;21.16;57.00;101921.06;5035199;28;45491;-75
2023/06/23 04:40:20;;;;;;;;;7.33;6.67;;;;;21.09;56.85;101890.16;5033854;28;45668;-74
2023/06/23 04:42:53;;;;;;;;;7.00;6.33;;;;;21.32;56.51;101924.25;5032636;28;45398;-73
2023/06/23 04:45:23;;;;;;;;;6.67;6.00;;;;;21.42;56.37;101940.03;5034324;28;45300;-73
2023/06/23 04:48:00;;;;;;;;;8.00;8.00;;;;;21.48;56.29;101942.56;5034138;28;45767;-74
2023/06/23 04:50:30;;;;;;;;;8.33;7.67;;;;;21.50;56.54;101941.63;5032738;28;47042;-73
2023/06/23 04:53:04;;;;;;;;;6.00;5.67;;;;;21.33;55.95;101906.47;5034234;28;45470;-74
2023/06/23 04:55:35;;;;;;;;;6.33;6.00;;;;;21.58;55.81;101942.28;5039438;28;45791;-73
2023/06/23 04:58:04;;;;;;;;;5.67;5.67;;;;;21.60;55.84;101942.28;5056284;28;45439;-73
2023/06/23 05:00:31;;;;;;;;;6.67;5.33;;;;;21.74;55.79;101964.13;5058208;28;46196;-76
2023/06/23 05:03:02;;;;;;;;;7.00;4.33;;;;;21.67;55.83;101943.88;5054338;28;45637;-73
2023/06/23 05:05:33;;;;;;;;;4.00;4.00;;;;;21.83;55.56;101962.13;5054925;28;45370;-74
2023/06/23 05:08:01;;;;;;;;;6.00;5.33;;;;;21.68;56.01;101934.06;5058541;28;45947;-73
2023/06/23 05:10:30;;;;;;;;;4.33;3.67;;;;;21.89;55.75;101954.84;5056695;28;45632;-74
2023/06/23 05:13:00;;;;;;;;;6.00;5.00;;;;;21.89;55.79;101954.84;5057520;28;45600;-73
2023/06/23 05:15:27;;;;;;;;;8.67;6.00;;;;;21.80;55.53;101926.63;5054400;28;45528;-73
2023/06/23 05:18:00;;;;;;;;;9.00;6.00;;;;;21.87;55.60;101943.34;5054278;28;45498;-73
2023/06/23 05:20:29;;;;;;;;;5.00;5.00;;;;;22.03;55.68;101970.50;5052568;28;45577;-73
2023/06/23 05:23:02;;;;;;;;;4.00;4.00;;;;;22.12;55.49;101977.41;5055852;28;45311;-73
2023/06/23 05:25:30;;;;;;;;;5.33;4.67;;;;;22.17;55.13;101981.69;5058260;28;45488;-73
2023/06/23 05:28:00;;;;;;;;;5.67;5.67;;;;;22.13;55.17;101968.47;5058041;28;45451;-74
2023/06/23 05:30:28;;;;;;;;;8.33;6.67;;;;;22.23;55.00;101980.66;5053960;28;45644;-73
2023/06/23 05:32:58;;;;;;;;;7.67;6.00;;;;;22.17;55.00;101978.16;5053331;28;45534;-73
2023/06/23 05:35:40;;;;;;;;;6.67;5.33;;;;;22.15;54.91;101961.31;5054471;28;45390;-74
2023/06/23 05:38:09;;;;;;;;;7.00;5.00;;;;;22.28;54.66;101965.44;5053069;28;45595;-74
2023/06/23 05:40:35;;;;;;;;;5.33;5.00;;;;;22.40;54.60;101988.22;5057078;28;45762;-73
2023/06/23 05:43:01;;;;;;;;;6.00;4.33;;;;;22.22;54.53;101945.09;5058593;28;45540;-73
2023/06/23 05:45:27;;;;;;;;;4.00;4.00;;;;;22.41;54.54;101968.63;5058385;28;45468;-73
2023/06/23 05:48:16;;;;;;;;;6.00;6.00;;;;;22.58;54.26;101982.38;5058019;28;45444;-74
2023/06/23 05:50:46;;;;;;;;;8.33;6.33;;;;;22.41;53.95;101942.81;5060874;28;46329;-73
2023/06/23 05:53:20;;;;;;;;;5.33;5.33;;;;;22.60;53.78;101974.31;5060754;28;45243;-72
2023/06/23 05:55:54;;;;;;;;;11.00;7.67;;;;;22.73;53.95;101986.41;5057574;28;45391;-73
2023/06/23 05:58:29;;;;;;;;;9.67;8.00;;;;;22.80;53.75;101988.00;5055424;28;45401;-74
2023/06/23 06:01:00;;;;;;;;;7.33;7.00;;;;;22.43;53.67;101930.28;5057106;28;46042;-76
2023/06/23 06:04:00;;;;;;;;;6.67;6.00;;;;;22.74;53.31;101971.25;5060995;28;45776;-74
2023/06/23 06:06:47;;;;;;;;;6.00;5.33;;;;;22.96;53.61;101993.72;5053144;28;45520;-75
2023/06/23 06:09:15;;;;;;;;;10.00;5.00;;;;;23.02;53.13;101990.91;5054984;28;45650;-75
2023/06/23 06:11:46;;;;;;;;;9.00;5.33;;;;;22.99;53.07;101982.09;5058112;28;47722;-75
2023/06/23 06:14:15;;;;;;;;;7.00;6.67;;;;;23.10;52.74;101987.13;5054844;28;45414;-74
2023/06/23 06:16:43;;;;;;;;;10.00;8.67;;;;;23.22;52.79;102005.47;5056229;28;45406;-74
2023/06/23 06:19:09;;;;;;;;;10.00;7.67;;;;;23.16;52.58;101982.50;5059600;28;45336;-74
2023/06/23 06:21:39;;;;;;;;;10.33;6.00;;;;;23.17;52.39;101970.84;5056833;28;45469;-73
2023/06/23 06:24:07;;;;;;;;;7.67;6.33;;;;;23.41;52.12;101998.63;5054437;28;45664;-76
2023/06/23 06:26:32;;;;;;;;;7.00;6.00;;;;;23.46;52.48;101996.66;5059635;28;45449;-75
2023/06/23 06:29:03;;;;;;;;;8.33;5.00;;;;;23.48;52.03;101993.94;5056440;28;45792;-74
2023/06/23 06:31:31;;;;;;;;;10.00;8.00;;;;;23.59;52.22;102002.50;5056915;28;46238;-75
2023/06/23 06:34:00;;;;;;;;;6.33;6.00;;;;;23.55;51.59;101981.25;5059996;28;46048;-75
2023/06/23 06:36:32;;;;;;;;;4.00;4.00;;;;;23.69;51.52;101993.25;5060699;28;45483;-73
2023/06/23 06:39:02;;;;;;;;;7.00;5.33;;;;;23.71;50.99;101990.53;5060501;28;45339;-75
2023/06/23 06:41:30;;;;;;;;;6.00;4.67;;;;;23.69;51.06;101971.84;5060147;28;45464;-74
2023/06/23 06:44:02;;;;;;;;;6.33;6.33;;;;;23.77;50.83;101978.78;5056690;28;45441;-76
2023/06/23 06:46:29;;;;;;;;;7.00;7.00;;;;;23.90;50.89;101993.50;5056125;28;45485;-75
2023/06/23 06:48:59;;;;;;;;;10.33;7.67;;;;;23.69;51.02;101952.25;5054933;28;45612;-75
2023/06/23 06:51:27;;;;;;;;;8.67;5.67;;;;;23.42;50.90;101903.22;5056088;28;45424;-73
2023/06/23 06:53:53;;;;;;;;;5.67;5.67;;;;;24.15;50.64;102006.91;5060038;28;45342;-73
2023/06/23 06:56:21;;;;;;;;;6.67;6.67;;;;;24.18;50.16;102009.50;5058640;28;45625;-74
2023/06/23 06:58:46;;;;;;;;;8.33;8.33;;;;;24.12;50.54;101983.78;5055368;28;45760;-74
2023/06/23 07:01:15;;;;;;;;;6.67;6.67;;;;;24.23;50.05;101995.94;5058384;28;45541;-74
2023/06/23 07:03:43;;;;;;;;;11.50;7.50;;;;;24.25;49.79;101988.72;5059616;28;45266;-73
2023/06/23 07:06:09;;;;;;;;;9.00;6.67;;;;;24.33;50.14;102000.91;5060144;28;45430;-73
2023/06/23 07:08:34;;;;;;;;;6.67;6.33;;;;;24.38;49.97;101999.88;5058785;28;45495;-74
2023/06/23 07:11:00;;;;;;;;;11.67;8.00;;;;;24.41;50.00;101997.09;5055328;28;45850;-73
2023/06/23 07:13:29;;;;;;;;;13.00;8.33;;;;;24.27;49.68;101965.44;5057916;28;45511;-72
2023/06/23 07:15:55;;;;;;;;;7.67;6.67;;;;;24.48;49.74;101996.84;5057029;28;45425;-72
2023/06/23 07:18:23;;;;;;;;;7.00;5.67;;;;;24.32;49.66;101955.44;5055627;28;46062;-72
2023/06/23 07:20:49;;;;;;;;;9.33;8.00;;;;;24.52;49.95;101990.44;5055836;28;45458;-72
2023/06/23 07:23:15;;;;;;;;;11.00;9.33;;;;;24.24;49.69;101938.78;5055787;28;45433;-74
2023/06/23 07:25:40;;;;;;;;;8.00;7.00;;;;;24.41;50.05;101971.16;5054858;28;45315;-73
2023/06/23 07:28:06;;;;;;;;;5.75;5.75;;;;;24.47;49.58;101976.34;5055293;28;45654;-74
2023/06/23 07:30:31;;;;;;;;;8.00;7.00;;;;;24.56;49.78;101988.53;5074044;28;46765;-74
2023/06/23 07:33:00;;;;;;;;;8.67;7.00;;;;;24.54;49.53;101967.16;5054335;28;45989;-73
2023/06/23 07:35:30;;;;;;;;;6.67;6.67;;;;;24.69;48.95;101986.28;5056115;28;45728;-73
2023/06/23 07:37:55;;;;;;;;;8.50;7.50;;;;;24.61;48.81;101954.41;5054553;28;45510;-73
2023/06/23 07:40:21;;;;;;;;;5.67;5.67;;;;;24.76;48.33;101985.97;5056841;28;45411;-73
2023/06/23 07:42:46;;;;;;;;;8.00;8.00;;;;;24.74;48.60;101981.59;5059143;28;45528;-74
2023/06/23 07:45:13;;;;;;;;;9.00;7.00;;;;;24.67;48.44;101969.38;5055982;28;45510;-72
2023/06/23 07:47:38;;;;;;;;;10.00;6.00;;;;;24.89;48.30;101994.44;5054826;28;45394;-73
2023/06/23 07:50:05;;;;;;;;;6.67;5.67;;;;;24.93;48.84;101998.72;5054949;28;45338;-71
2023/06/23 07:52:30;;;;;;;;;7.00;6.25;;;;;24.93;48.75;101987.13;5054947;28;45726;-72
2023/06/23 07:54:56;;;;;;;;;10.00;8.00;;;;;25.02;49.08;101996.66;5056901;28;45473;-73
2023/06/23 07:57:22;;;;;;;;;7.00;6.00;;;;;25.01;49.55;101978.78;5059204;28;45410;-74
2023/06/23 07:59:48;;;;;;;;;8.00;6.33;;;;;25.05;49.52;101975.06;5058856;28;46402;-71
2023/06/23 08:02:14;;;;;;;;;9.00;7.00;;;;;25.20;48.52;101993.28;5059224;28;45342;-72
2023/06/23 08:04:39;;;;;;;;;7.00;5.75;;;;;25.28;48.27;101990.28;5057451;28;45600;-71
2023/06/23 08:07:05;;;;;;;;;5.75;5.75;;;;;25.31;48.13;101990.16;5054828;28;45398;-71
2023/06/23 08:09:30;;;;;;;;;9.00;8.00;;;;;25.42;48.14;102000.47;5056611;28;45487;-73
2023/06/23 08:11:56;;;;;;;;;8.50;6.25;;;;;25.42;47.90;101995.09;5058912;28;45539;-70
2023/06/23 08:14:22;;;;;;;;;6.00;6.00;;;;;25.50;47.12;102004.56;5053304;28;45363;-72
2023/06/23 08:16:48;;;;;;;;;8.67;6.67;;;;;25.46;47.08;101994.94;5054717;28;45509;-73
2023/06/23 08:19:13;;;;;;;;;5.75;4.00;;;;;25.50;47.68;102003.72;5054255;28;45486;-73
2023/06/23 08:21:40;;;;;;;;;8.25;5.50;;;;;25.65;46.75;102019.19;5054420;28;45427;-71
2023/06/23 08:24:06;;;;;;;;;6.50;4.50;;;;;25.70;47.01;102014.50;5053472;28;45522;-73
2023/06/23 08:26:32;;;;;;;;;7.00;7.00;;;;;25.76;46.69;102019.59;5055322;28;45422;-72
2023/06/23 08:28:57;;;;;;;;;5.75;5.75;;;;;25.78;46.11;102017.72;5056636;28;46789;-71
2023/06/23 08:31:23;;;;;;;;;8.25;5.25;;;;;25.83;46.29;102024.72;5052965;28;45717;-71
2023/06/23 08:33:49;;;;;;;;;6.00;5.75;;;;;25.88;46.50;102028.97;5046621;28;45469;-72
2023/06/23 08:36:14;;;;;;;;;7.25;5.50;;;;;25.80;46.03;102015.84;5034763;28;45469;-72
2023/06/23 08:38:40;;;;;;;;;7.50;6.00;;;;;25.78;45.46;102014.19;5032978;28;46937;-74
2023/06/23 08:41:06;;;;;;;;;6.75;6.50;;;;;25.93;45.67;102031.47;5034915;28;45667;-73
2023/06/23 08:43:35;;;;;;;;;6.25;4.25;;;;;25.84;45.24;102015.72;5035935;28;45556;-75
2023/06/23 08:46:06;;;;;;;;;5.75;5.00;;;;;26.00;45.57;102038.34;5035098;28;45531;-75
2023/06/23 08:48:32;;;;;;;;;7.00;7.00;;;;;26.06;47.54;102042.59;5035743;28;46982;-76
2023/06/23 08:51:00;;;;;;;;;6.75;5.00;;;;;25.95;45.24;102016.19;5050578;28;45509;-74
2023/06/23 08:53:26;;;;;;;;;6.50;6.50;;;;;25.99;45.01;102032.09;5033548;28;45288;-76
2023/06/23 08:55:53;;;;;;;;;6.50;6.50;;;;;26.12;45.20;102037.81;5034989;28;45489;-76
2023/06/23 08:58:21;;;;;;;;;6.00;6.00;;;;;26.15;45.44;102039.47;5033897;28;45740;-77
2023/06/23 09:00:51;;;;;;;;;6.25;6.25;;;;;25.96;45.05;102007.19;5034292;28;45414;-75
2023/06/23 09:03:18;;;;;;;;;6.25;5.75;;;;;26.17;45.54;102041.19;5034849;28;45347;-77
2023/06/23 09:05:44;;;;;;;;;7.00;6.25;;;;;26.21;45.39;102047.28;5043738;28;45492;-77
2023/06/23 09:08:10;;;;;;;;;7.00;6.00;;;;;25.95;44.99;102000.09;5054307;28;46696;-75
2023/06/23 09:10:38;;;;;;;;;4.50;4.50;;;;;26.25;45.67;102045.38;5053356;28;45472;-76
2023/06/23 09:13:18;;;;;;;;;7.50;6.50;;;;;26.07;45.20;102006.75;5053019;28;45329;-76
2023/06/23 09:15:48;;;;;;;;;4.00;4.00;;;;;26.36;45.21;102038.59;5047156;28;45541;-79
2023/06/23 09:18:16;;;;;;;;;8.00;8.00;;;;;26.25;44.91;102023.88;5033145;28;46093;-75
2023/06/23 09:20:52;;;;;;;;;7.25;6.00;;;;;26.22;45.18;102025.75;5033652;28;45874;-77
2023/06/23 09:23:23;;;;;;;;;8.75;5.75;;;;;26.46;44.93;102052.47;5035044;28;45460;-75
2023/06/23 09:25:51;;;;;;;;;7.50;7.00;;;;;26.51;44.67;102046.91;5055099;28;45535;-74
2023/06/23 09:28:37;;;;;;;;;8.00;8.00;;;;;26.56;45.39;102044.91;5056514;28;46366;-76
2023/06/23 09:31:17;;;;;;;;;9.00;7.50;;;;;26.63;44.60;102055.31;5045173;28;45500;-76
2023/06/23 09:33:53;;;;;;;;;7.00;6.75;;;;;26.67;43.89;102053.34;5051970;28;45529;-73
2023/06/23 09:36:32;;;;;;;;;7.25;6.25;;;;;26.64;44.73;102034.69;5056426;28;45398;-74
2023/06/23 09:39:01;;;;;;;;;7.50;7.25;;;;;26.60;43.85;102025.00;5055306;28;46329;-76
2023/06/23 09:41:34;;;;;;;;;4.25;4.00;;;;;26.77;43.94;102040.41;5054024;28;45564;-80
2023/06/23 09:44:11;;;;;;;;;9.75;6.00;;;;;26.60;44.09;102006.19;5053806;28;45434;-74
2023/06/23 09:46:38;;;;;;;;;7.50;6.25;;;;;26.72;43.99;102034.34;5054401;28;45387;-76
2023/06/23 09:49:09;;;;;;;;;6.25;6.00;;;;;26.62;43.25;102012.38;5053906;28;45790;-76
2023/06/23 09:51:48;;;;;;;;;6.50;6.50;;;;;26.75;42.57;102028.84;5054959;27;45907;-76
2023/06/23 09:54:36;;;;;;;;;7.75;6.00;;;;;26.76;43.49;102036.81;5054806;28;45531;-75
2023/06/23 09:57:16;;;;;;;;;7.25;4.50;;;;;26.78;43.05;102034.06;5054795;28;45614;-76
2023/06/23 09:59:44;;;;;;;;;8.25;6.25;;;;;26.64;43.18;102007.81;5055755;28;46170;-76
2023/06/23 10:02:34;;;;;;;;;8.25;7.00;;;;;26.59;42.62;101993.72;5055769;28;45445;-74
2023/06/23 10:05:03;;;;;;;;;6.25;5.25;;;;;26.90;42.74;102028.13;5050077;28;45405;-74
2023/06/23 10:07:32;;;;;;;;;6.00;6.00;;;;;26.88;42.98;102024.63;5034923;28;45455;-74
2023/06/23 10:10:09;;;;;;;;;6.00;6.00;;;;;26.97;43.20;102024.22;5050964;28;47004;-78
2023/06/23 10:12:38;;;;;;;;;8.00;7.00;;;;;26.98;43.02;102009.84;5051865;28;45433;-76
2023/06/23 10:15:05;;;;;;;;;10.50;6.00;;;;;26.89;43.11;101990.56;5053418;28;45422;-76
2023/06/23 10:17:32;;;;;;;;;7.75;6.75;;;;;27.17;42.39;102017.00;5054827;28;45399;-74
2023/06/23 10:19:57;;;;;;;;;8.00;6.75;;;;;27.17;42.59;102025.06;5053170;28;45791;-75
2023/06/23 10:22:23;;;;;;;;;6.25;6.25;;;;;27.22;42.43;102023.09;5053759;28;45295;-76
2023/06/23 10:24:53;;;;;;;;;7.00;7.00;;;;;27.23;42.48;102008.69;5056729;28;45525;-77
2023/06/23 10:27:25;;;;;;;;;8.25;8.25;;;;;27.32;42.01;102019.00;5055508;28;45500;-75
2023/06/23 10:29:59;;;;;;;;;10.25;9.00;;;;;27.39;41.13;102006.16;5067498;28;46747;-76
2023/06/23 10:32:33;;;;;;;;;7.75;6.00;;;;;27.19;41.17;101964.03;5037253;28;45450;-75
2023/06/23 10:35:04;;;;;;;;;6.00;6.00;;;;;27.53;41.82;102024.31;5040109;28;45371;-76
2023/06/23 10:37:30;;;;;;;;;8.25;7.75;;;;;27.22;41.55;101948.66;5036596;28;45672;-75
2023/06/23 10:40:00;;;;;;;;;8.75;7.50;;;;;27.73;40.92;102007.16;5037473;28;45368;-75
2023/06/23 10:42:28;;;;;;;;;11.50;8.00;;;;;27.39;40.82;101953.22;5036152;28;45366;-74
2023/06/23 10:44:54;;;;;;;;;7.75;7.25;;;;;27.61;40.07;101985.28;5035621;28;45486;-75
2023/06/23 10:47:21;;;;;;;;;6.75;5.25;;;;;27.75;40.47;101983.75;5042289;28;45447;-74
2023/06/23 10:49:48;;;;;;;;;5.75;5.75;;;;;27.90;40.16;101988.34;5052743;28;46192;-75
2023/06/23 10:52:15;;;;;;;;;7.00;6.00;;;;;28.05;39.24;102008.25;5054859;28;45660;-76
2023/06/23 10:54:43;;;;;;;;;7.50;7.00;;;;;28.09;39.80;102007.13;5050870;28;45558;-78
2023/06/23 10:57:14;;;;;;;;;7.75;6.75;;;;;28.05;39.18;101997.50;5037775;28;45426;-75
2023/06/23 10:59:44;;;;;;;;;8.75;7.75;;;;;27.86;38.88;101954.50;5035708;28;45550;-74
2023/06/23 11:02:13;;;;;;;;;7.25;6.50;;;;;28.15;38.66;101995.19;5049843;28;45739;-74
2023/06/23 11:04:51;;;;;;;;;8.50;6.50;;;;;28.33;38.97;102030.13;5056245;28;45434;-74
2023/06/23 11:07:16;;;;;;;;;7.50;7.25;;;;;28.34;38.62;102014.81;5040198;28;45486;-73
2023/06/23 11:10:01;;;;;;;;;6.75;6.75;;;;;28.37;38.52;102013.78;5038449;28;45557;-76
2023/06/23 11:12:42;;;;;;;;;8.00;6.50;;;;;28.41;37.91;102016.22;5040539;28;45739;-74
2023/06/23 11:15:20;;;;;;;;;7.25;7.25;;;;;28.50;37.89;102021.19;5035807;28;45301;-74
2023/06/23 11:17:47;;;;;;;;;10.25;10.25;;;;;28.32;37.42;101974.47;5038565;28;45556;-75
2023/06/23 11:20:30;;;;;;;;;10.50;8.50;;;;;28.53;37.10;101988.66;5038107;28;46858;-73
2023/06/23 11:23:00;;;;;;;;;9.00;7.75;;;;;28.79;36.73;102015.16;5037695;28;45480;-75
2023/06/23 11:25:27;;;;;;;;;6.50;6.50;;;;;28.66;36.49;102009.56;5036959;28;46073;-76
2023/06/23 11:28:24;;;;;;;;;9.00;8.50;;;;;28.66;37.20;102020.34;5035778;28;45309;-75
2023/06/23 11:31:03;;;;;;;;;8.00;7.50;;;;;28.57;37.10;102012.75;5035231;28;45565;-73
2023/06/23 11:33:33;;;;;;;;;11.50;10.75;;;;;28.21;37.36;101976.84;5037623;28;45600;-73
2023/06/23 11:36:01;;;;;;;;;61.00;43.67;;;;;28.30;36.92;102006.00;5051099;28;45434;-72
2023/06/23 11:38:29;;;;;;;;;43.33;33.67;;;;;28.18;37.02;101987.81;5055941;28;45690;-76